createdAt,value
2022-08-22T00:00:24.422Z,21.79
2022-08-22T00:02:47.979Z,22.79
2022-08-22T00:02:54.938Z,22.26
2022-08-22T00:05:55.874Z,21.92
2022-08-22T00:08:30.028Z,21.95
2022-08-22T00:11:25.645Z,21.95
2022-08-22T00:14:35.398Z,21.94
2022-08-22T00:17:36.305Z,21.96
2022-08-22T00:20:28.441Z,21.89
2022-08-22T00:23:16.031Z,21.91
2022-08-22T00:26:09.625Z,22.02
2022-08-22T00:28:41.941Z,22.07
2022-08-22T00:31:26.592Z,22.02
2022-08-22T00:34:02.827Z,22.01
2022-08-22T00:36:52.553Z,21.92
2022-08-22T00:39:40.985Z,21.85
2022-08-22T00:42:08.235Z,21.79
2022-08-22T00:44:47.365Z,21.90
2022-08-22T00:47:32.477Z,21.73
2022-08-22T00:50:17.717Z,21.59
2022-08-22T00:53:14.316Z,21.50
2022-08-22T00:56:04.093Z,21.35
2022-08-22T00:59:23.392Z,21.23
2022-08-22T01:02:03.293Z,21.15
2022-08-22T01:04:33.009Z,21.08
2022-08-22T01:07:38.384Z,21.04
2022-08-22T01:10:29.492Z,20.95
2022-08-22T01:13:14.633Z,20.94
2022-08-22T01:15:42.788Z,20.81
2022-08-22T01:18:18.855Z,20.32
2022-08-22T01:21:03.931Z,20.42
2022-08-22T01:23:49.378Z,20.42
2022-08-22T01:26:31.855Z,20.53
2022-08-22T01:29:40.383Z,20.53
2022-08-22T01:32:47.808Z,20.51
2022-08-22T01:35:42.284Z,20.45
2022-08-22T01:38:44.752Z,20.51
2022-08-22T01:41:30.325Z,20.59
2022-08-22T01:44:10.656Z,20.57
2022-08-22T01:46:57.661Z,20.47
2022-08-22T01:49:49.084Z,20.53
2022-08-22T01:52:28.222Z,20.54
2022-08-22T01:55:09.388Z,20.51
2022-08-22T01:58:04.919Z,20.52
2022-08-22T02:00:56.027Z,20.48
2022-08-22T02:03:27.769Z,20.49
2022-08-22T02:06:00.484Z,20.44
2022-08-22T02:09:05.145Z,20.38
2022-08-22T02:11:56.063Z,20.36
2022-08-22T02:14:36.633Z,20.31
2022-08-22T02:17:50.392Z,20.24
2022-08-22T02:20:31.636Z,20.36
2022-08-22T02:23:07.386Z,20.33
2022-08-22T02:25:56.454Z,20.40
2022-08-22T02:28:57.001Z,20.39
2022-08-22T02:31:36.803Z,20.47
2022-08-22T02:34:20.592Z,20.51
2022-08-22T02:36:50.116Z,20.45
2022-08-22T02:39:38.564Z,20.53
2022-08-22T02:42:23.803Z,20.49
2022-08-22T02:45:18.339Z,20.64
2022-08-22T02:48:15.156Z,20.57
2022-08-22T02:50:54.375Z,20.54
2022-08-22T02:53:32.456Z,20.48
2022-08-22T02:56:04.793Z,20.50
2022-08-22T02:58:59.198Z,20.11
2022-08-22T03:01:32.334Z,20.66
2022-08-22T03:04:18.011Z,20.65
2022-08-22T03:07:00.702Z,20.63
2022-08-22T03:09:33.603Z,20.66
2022-08-22T03:12:21.465Z,20.57
2022-08-22T03:14:51.028Z,20.61
2022-08-22T03:17:30.651Z,20.57
2022-08-22T03:19:57.232Z,20.63
2022-08-22T03:22:30.024Z,20.60
2022-08-22T03:25:37.509Z,20.60
2022-08-22T03:28:18.289Z,20.72
2022-08-22T03:30:56.087Z,20.74
2022-08-22T03:33:26.395Z,20.89
2022-08-22T03:35:58.104Z,20.91
2022-08-22T03:38:33.453Z,20.90
2022-08-22T03:41:24.087Z,20.96
2022-08-22T03:44:18.944Z,20.94
2022-08-22T03:47:04.044Z,20.94
2022-08-22T03:49:45.755Z,20.77
2022-08-22T03:52:34.002Z,20.79
2022-08-22T03:55:18.259Z,20.86
2022-08-22T03:57:54.652Z,20.89
2022-08-22T04:00:49.041Z,20.98
2022-08-22T04:03:41.652Z,21.06
2022-08-22T04:06:37.615Z,21.04
2022-08-22T04:09:50.215Z,20.77
2022-08-22T04:12:44.785Z,20.28
2022-08-22T04:15:48.359Z,20.29
2022-08-22T04:18:39.659Z,20.16
2022-08-22T04:21:16.433Z,20.11
2022-08-22T04:24:04.729Z,20.02
2022-08-22T04:26:34.544Z,19.95
2022-08-22T04:29:27.322Z,19.52
2022-08-22T04:32:12.716Z,19.62
2022-08-22T04:34:56.697Z,19.82
2022-08-22T04:37:31.707Z,19.97
2022-08-22T04:40:21.880Z,20.07
2022-08-22T04:43:03.765Z,19.92
2022-08-22T04:45:43.854Z,20.13
2022-08-22T04:48:22.218Z,20.12
2022-08-22T04:50:55.455Z,19.87
2022-08-22T04:53:34.220Z,19.77
2022-08-22T04:56:22.549Z,20.05
2022-08-22T04:58:58.576Z,20.14
2022-08-22T05:01:47.072Z,20.23
2022-08-22T05:04:18.505Z,20.32
2022-08-22T05:06:51.116Z,20.55
2022-08-22T05:09:25.838Z,20.77
2022-08-22T05:11:57.830Z,20.98
2022-08-22T05:14:33.796Z,20.70
2022-08-22T05:17:04.371Z,20.98
2022-08-22T05:19:36.171Z,21.30
2022-08-22T05:22:09.125Z,21.53
2022-08-22T05:24:46.280Z,21.62
2022-08-22T05:27:20.318Z,21.50
2022-08-22T05:29:50.045Z,21.89
2022-08-22T05:32:26.388Z,21.72
2022-08-22T05:34:59.693Z,21.95
2022-08-22T05:37:33.341Z,22.37
2022-08-22T05:40:01.516Z,22.48
2022-08-22T05:42:33.204Z,22.69
2022-08-22T05:45:06.881Z,22.80
2022-08-22T05:47:44.482Z,23.08
2022-08-22T05:50:19.994Z,22.92
2022-08-22T05:53:00.109Z,23.30
2022-08-22T05:55:29.363Z,23.29
2022-08-22T05:58:23.999Z,23.20
2022-08-22T06:00:58.682Z,23.22
2022-08-22T06:03:38.509Z,22.98
2022-08-22T06:06:14.877Z,23.34
2022-08-22T06:08:56.872Z,22.99
2022-08-22T06:11:39.754Z,23.63
2022-08-22T06:14:28.974Z,23.06
2022-08-22T06:17:10.435Z,23.84
2022-08-22T06:19:41.985Z,23.26
2022-08-22T06:22:11.748Z,23.70
2022-08-22T06:24:44.311Z,24.14
2022-08-22T06:27:14.296Z,24.33
2022-08-22T06:29:49.361Z,24.68
2022-08-22T06:32:34.160Z,24.97
2022-08-22T06:35:50.434Z,24.66
2022-08-22T06:38:20.333Z,25.24
2022-08-22T06:40:48.713Z,25.37
2022-08-22T06:43:16.334Z,25.39
2022-08-22T06:45:43.250Z,25.75
2022-08-22T06:48:09.804Z,25.96
2022-08-22T06:50:42.678Z,25.46
2022-08-22T06:53:16.886Z,26.08
2022-08-22T06:55:50.436Z,26.51
2022-08-22T06:58:23.074Z,26.30
2022-08-22T07:01:11.067Z,26.18
2022-08-22T07:03:45.010Z,26.28
2022-08-22T07:06:17.375Z,26.18
2022-08-22T07:08:45.082Z,26.50
2022-08-22T07:11:34.039Z,26.68
2022-08-22T07:14:08.393Z,26.51
2022-08-22T07:16:44.338Z,26.54
2022-08-22T07:19:24.807Z,26.71
2022-08-22T07:21:51.997Z,26.89
2022-08-22T07:24:25.191Z,27.33
2022-08-22T07:27:15.952Z,27.47
2022-08-22T07:29:46.278Z,27.42
2022-08-22T07:32:35.306Z,27.68
2022-08-22T07:35:13.428Z,28.00
2022-08-22T07:37:46.311Z,28.08
2022-08-22T07:40:23.624Z,28.07
2022-08-22T07:42:59.738Z,28.18
2022-08-22T07:45:47.618Z,27.73
2022-08-22T07:48:32.809Z,27.36
2022-08-22T07:51:15.375Z,27.76
2022-08-22T07:54:05.113Z,28.38
2022-08-22T07:56:37.410Z,28.49
2022-08-22T07:59:13.231Z,28.76
2022-08-22T08:01:48.441Z,28.54
2022-08-22T08:04:20.868Z,28.17
2022-08-22T08:06:50.989Z,28.71
2022-08-22T08:09:20.458Z,28.99
2022-08-22T08:11:51.461Z,28.90
2022-08-22T08:14:20.992Z,29.51
2022-08-22T08:17:18.708Z,29.54
2022-08-22T08:19:47.379Z,29.68
2022-08-22T08:22:24.849Z,27.28
2022-08-22T08:24:55.722Z,30.09
2022-08-22T08:27:45.037Z,30.02
2022-08-22T08:30:19.630Z,28.58
2022-08-22T08:32:57.575Z,29.24
2022-08-22T08:36:02.977Z,29.47
2022-08-22T08:39:14.397Z,29.56
2022-08-22T08:42:07.037Z,30.05
2022-08-22T08:44:52.230Z,30.30
2022-08-22T08:47:31.664Z,29.99
2022-08-22T08:50:10.420Z,30.31
2022-08-22T08:52:53.325Z,29.82
2022-08-22T08:55:38.642Z,28.83
2022-08-22T08:58:33.955Z,28.38
2022-08-22T09:01:07.054Z,29.04
2022-08-22T09:04:19.554Z,29.17
2022-08-22T09:07:01.325Z,29.23
2022-08-22T09:09:37.416Z,29.86
2022-08-22T09:12:17.098Z,30.05
2022-08-22T09:15:02.614Z,30.03
2022-08-22T09:18:03.766Z,30.41
2022-08-22T09:20:46.405Z,30.61
2022-08-22T09:23:43.856Z,30.70
2022-08-22T09:26:17.143Z,30.19
2022-08-22T09:29:07.258Z,30.07
2022-08-22T09:32:03.495Z,29.63
2022-08-22T09:34:34.164Z,29.02
2022-08-22T09:37:16.919Z,28.99
2022-08-22T09:40:17.473Z,29.62
2022-08-22T09:42:53.032Z,29.66
2022-08-22T09:45:24.934Z,29.72
2022-08-22T09:48:07.203Z,28.71
2022-08-22T09:51:08.310Z,29.53
2022-08-22T09:54:18.823Z,28.46
2022-08-22T09:57:01.574Z,28.84
2022-08-22T09:59:52.282Z,29.77
2022-08-22T10:02:56.582Z,30.54
2022-08-22T10:05:41.043Z,30.68
2022-08-22T10:08:14.081Z,30.88
2022-08-22T10:11:19.003Z,30.97
2022-08-22T10:14:01.291Z,30.73
2022-08-22T10:16:53.182Z,29.94
2022-08-22T10:19:42.862Z,29.66
2022-08-22T10:22:10.035Z,29.33
2022-08-22T10:24:55.598Z,29.56
2022-08-22T10:27:50.967Z,30.37
2022-08-22T10:30:22.125Z,30.84
2022-08-22T10:32:57.034Z,31.10
2022-08-22T10:35:33.901Z,31.14
2022-08-22T10:38:12.428Z,31.46
2022-08-22T10:40:48.665Z,31.33
2022-08-22T10:43:28.852Z,32.26
2022-08-22T10:46:13.780Z,30.89
2022-08-22T10:48:54.807Z,30.47
2022-08-22T10:51:46.062Z,30.59
2022-08-22T10:54:23.166Z,29.88
2022-08-22T10:57:06.666Z,29.80
2022-08-22T10:59:46.019Z,30.42
2022-08-22T11:02:23.274Z,30.42
2022-08-22T11:05:04.492Z,30.28
2022-08-22T11:08:02.386Z,30.13
2022-08-22T11:10:40.935Z,30.04
2022-08-22T11:13:29.136Z,29.81
2022-08-22T11:16:14.075Z,29.72
2022-08-22T11:19:04.890Z,29.32
2022-08-22T11:21:48.570Z,29.13
2022-08-22T11:24:56.754Z,29.13
2022-08-22T11:27:38.307Z,28.90
2022-08-22T11:30:36.308Z,28.58
2022-08-22T11:33:46.599Z,28.48
2022-08-22T11:36:30.932Z,27.96
2022-08-22T11:39:17.940Z,27.43
2022-08-22T11:41:53.499Z,27.11
2022-08-22T11:44:28.273Z,27.05
2022-08-22T11:46:58.080Z,26.80
2022-08-22T11:49:36.730Z,26.84
2022-08-22T11:52:15.278Z,26.69
2022-08-22T11:55:10.377Z,27.23
2022-08-22T11:57:44.852Z,27.16
2022-08-22T12:00:50.311Z,27.21
2022-08-22T12:03:27.711Z,27.01
2022-08-22T12:06:00.340Z,27.19
2022-08-22T12:08:29.730Z,27.02
2022-08-22T12:10:59.856Z,26.97
2022-08-22T12:14:02.431Z,26.59
2022-08-22T12:16:39.277Z,26.61
2022-08-22T12:19:32.987Z,26.32
2022-08-22T12:22:31.118Z,25.64
2022-08-22T12:25:11.061Z,25.24
2022-08-22T12:27:55.306Z,24.88
2022-08-22T12:30:46.631Z,24.58
2022-08-22T12:33:14.263Z,24.45
2022-08-22T12:35:57.329Z,24.26
2022-08-22T12:38:38.959Z,24.23
2022-08-22T12:41:38.656Z,24.14
2022-08-22T12:44:26.939Z,23.76
2022-08-22T12:47:25.269Z,23.71
2022-08-22T12:50:13.572Z,23.52
2022-08-22T12:52:49.104Z,22.77
2022-08-22T12:55:28.195Z,22.63
2022-08-22T12:58:00.889Z,21.81
2022-08-22T13:00:41.598Z,21.72
2022-08-22T13:03:13.395Z,19.94
2022-08-22T13:05:56.864Z,22.08
2022-08-22T13:08:32.406Z,22.33
2022-08-22T13:11:09.832Z,22.39
2022-08-22T13:13:56.188Z,22.06
2022-08-22T13:16:25.663Z,22.33
2022-08-22T13:18:57.701Z,22.81
2022-08-22T13:21:34.655Z,23.08
2022-08-22T13:24:11.741Z,23.32
2022-08-22T13:26:49.144Z,23.30
2022-08-22T13:29:39.641Z,23.41
2022-08-22T13:32:30.817Z,23.47
2022-08-22T13:35:00.174Z,23.67
2022-08-22T13:37:40.771Z,24.32
2022-08-22T13:40:15.561Z,24.55
2022-08-22T13:42:50.113Z,24.61
2022-08-22T13:45:27.078Z,24.50
2022-08-22T13:48:08.966Z,24.95
2022-08-22T13:51:12.577Z,24.16
2022-08-22T13:54:00.871Z,24.80
2022-08-22T13:56:47.399Z,25.23
2022-08-22T13:59:52.518Z,25.39
2022-08-22T14:02:24.381Z,25.28
2022-08-22T14:05:04.307Z,24.89
2022-08-22T14:07:40.652Z,24.69
2022-08-22T14:10:14.770Z,25.03
2022-08-22T14:13:20.739Z,25.03
2022-08-22T14:15:47.799Z,24.43
2022-08-22T14:18:30.526Z,24.69
2022-08-22T14:21:17.215Z,24.76
2022-08-22T14:23:45.672Z,24.62
2022-08-22T14:26:33.020Z,24.48
2022-08-22T14:29:12.081Z,24.64
2022-08-22T14:31:39.129Z,24.61
2022-08-22T14:34:13.603Z,24.21
2022-08-22T14:37:06.107Z,23.82
2022-08-22T14:39:46.232Z,24.48
2022-08-22T14:42:17.731Z,24.73
2022-08-22T14:45:06.857Z,24.00
2022-08-22T14:48:30.028Z,24.42
2022-08-22T14:51:01.439Z,25.23
2022-08-22T14:53:32.148Z,25.34
2022-08-22T14:56:06.425Z,25.41
2022-08-22T14:58:37.889Z,25.28
2022-08-22T15:01:11.869Z,25.27
2022-08-22T15:03:40.752Z,25.15
2022-08-22T15:06:29.006Z,24.94
2022-08-22T15:08:57.340Z,24.67
2022-08-22T15:11:31.811Z,25.11
2022-08-22T15:14:07.067Z,25.31
2022-08-22T15:16:46.418Z,25.46
2022-08-22T15:19:35.939Z,25.52
2022-08-22T15:22:16.739Z,25.46
2022-08-22T15:24:49.489Z,25.28
2022-08-22T15:27:20.550Z,25.56
2022-08-22T15:29:55.604Z,25.74
2022-08-22T15:32:35.759Z,25.77
2022-08-22T15:35:16.406Z,25.80
2022-08-22T15:38:02.967Z,25.85
2022-08-22T15:40:45.755Z,25.47
2022-08-22T15:43:33.656Z,25.85
2022-08-22T15:46:26.001Z,25.35
2022-08-22T15:49:23.507Z,25.46
2022-08-22T15:52:14.399Z,25.39
2022-08-22T15:54:53.333Z,25.28
2022-08-22T15:57:35.093Z,24.79
2022-08-22T16:00:05.219Z,25.16
2022-08-22T16:02:53.485Z,25.19
2022-08-22T16:05:37.112Z,24.96
2022-08-22T16:08:11.874Z,25.24
2022-08-22T16:10:45.512Z,25.27
2022-08-22T16:13:27.508Z,25.20
2022-08-22T16:16:08.461Z,25.09
2022-08-22T16:18:37.695Z,24.98
2022-08-22T16:21:08.174Z,24.75
2022-08-22T16:23:49.901Z,24.60
2022-08-22T16:26:30.360Z,24.51
2022-08-22T16:29:17.488Z,24.41
2022-08-22T16:31:44.882Z,24.32
2022-08-22T16:34:17.798Z,24.34
2022-08-22T16:37:08.725Z,24.35
2022-08-22T16:39:49.973Z,24.42
2022-08-22T16:42:19.493Z,24.37
2022-08-22T16:44:46.087Z,24.35
2022-08-22T16:47:21.666Z,24.21
2022-08-22T16:49:51.392Z,24.11
2022-08-22T16:52:21.199Z,23.95
2022-08-22T16:54:49.393Z,23.62
2022-08-22T16:57:22.364Z,23.64
2022-08-22T17:00:11.368Z,23.49
2022-08-22T17:02:50.357Z,23.53
2022-08-22T17:05:37.571Z,23.43
2022-08-22T17:08:39.437Z,23.32
2022-08-22T17:11:21.143Z,23.27
2022-08-22T17:14:00.574Z,23.21
2022-08-22T17:16:42.736Z,23.19
2022-08-22T17:19:40.170Z,23.03
2022-08-22T17:22:36.547Z,22.89
2022-08-22T17:25:24.266Z,22.93
2022-08-22T17:28:09.064Z,22.73
2022-08-22T17:30:46.566Z,22.67
2022-08-22T17:33:23.462Z,22.68
2022-08-22T17:36:26.677Z,22.64
2022-08-22T17:39:25.015Z,22.58
2022-08-22T17:42:21.110Z,22.05
2022-08-22T17:44:54.906Z,22.44
2022-08-22T17:47:30.979Z,22.37
2022-08-22T17:50:18.596Z,22.19
2022-08-22T17:52:46.108Z,22.16
2022-08-22T17:55:40.456Z,22.11
2022-08-22T17:58:36.057Z,21.99
2022-08-22T18:01:15.082Z,22.07
2022-08-22T18:03:50.612Z,22.00
2022-08-22T18:06:26.560Z,21.92
2022-08-22T18:09:23.296Z,21.74
2022-08-22T18:11:54.540Z,21.74
2022-08-22T18:14:29.278Z,21.68
2022-08-22T18:16:59.302Z,21.59
2022-08-22T18:19:50.286Z,21.71
2022-08-22T18:22:27.446Z,21.31
2022-08-22T18:24:54.132Z,21.70
2022-08-22T18:27:34.266Z,21.73
2022-08-22T18:30:08.515Z,21.34
2022-08-22T18:32:49.704Z,21.70
2022-08-22T18:35:23.675Z,21.55
2022-08-22T18:38:19.320Z,21.54
2022-08-22T18:40:54.589Z,21.39
2022-08-22T18:43:36.963Z,20.99
2022-08-22T18:46:38.695Z,21.36
2022-08-22T18:49:16.007Z,21.22
2022-08-22T18:51:43.359Z,21.09
2022-08-22T18:54:11.485Z,21.16
2022-08-22T18:56:47.826Z,21.19
2022-08-22T18:59:17.222Z,21.22
2022-08-22T19:02:01.460Z,21.19
2022-08-22T19:04:47.433Z,21.40
2022-08-22T19:07:32.923Z,21.40
2022-08-22T19:10:05.659Z,21.33
2022-08-22T19:12:55.462Z,21.31
2022-08-22T19:15:53.272Z,21.21
2022-08-22T19:18:55.990Z,21.29
2022-08-22T19:21:47.135Z,21.23
2022-08-22T19:24:19.671Z,21.32
2022-08-22T19:27:18.115Z,21.35
2022-08-22T19:29:44.796Z,21.28
2022-08-22T19:32:46.556Z,21.35
2022-08-22T19:35:37.348Z,21.16
2022-08-22T19:38:07.244Z,21.32
2022-08-22T19:40:46.016Z,21.36
2022-08-22T19:43:46.713Z,21.24
2022-08-22T19:46:14.941Z,21.15
2022-08-22T19:48:49.062Z,21.32
2022-08-22T19:51:22.045Z,21.12
2022-08-22T19:54:16.996Z,21.25
2022-08-22T19:57:16.760Z,21.32
2022-08-22T20:00:21.883Z,21.28
2022-08-22T20:03:05.017Z,21.37
2022-08-22T20:05:37.413Z,21.35
2022-08-22T20:08:41.724Z,21.10
2022-08-22T20:11:37.819Z,21.24
2022-08-22T20:14:24.959Z,21.31
2022-08-22T20:17:24.348Z,21.32
2022-08-22T20:22:39.289Z,21.20
2022-08-22T20:25:41.759Z,21.02
2022-08-22T20:28:08.579Z,20.98
2022-08-22T20:30:45.715Z,20.84
2022-08-22T20:33:32.729Z,20.56
2022-08-22T20:36:05.211Z,20.74
2022-08-22T20:38:38.223Z,20.51
2022-08-22T20:41:26.209Z,20.64
2022-08-22T20:44:18.872Z,20.53
2022-08-22T20:46:46.023Z,20.51
2022-08-22T20:49:40.823Z,20.57
2022-08-22T20:52:23.046Z,20.54
2022-08-22T20:55:08.276Z,20.45
2022-08-22T20:57:46.138Z,20.41
2022-08-22T21:00:16.598Z,20.42
2022-08-22T21:03:04.387Z,20.34
2022-08-22T21:05:49.174Z,20.28
2022-08-22T21:08:20.597Z,20.50
2022-08-22T21:11:16.507Z,20.64
2022-08-22T21:13:43.363Z,20.62
2022-08-22T21:16:19.095Z,20.65
2022-08-22T21:18:51.532Z,20.59
2022-08-22T21:21:20.607Z,19.93
2022-08-22T21:23:49.837Z,20.48
2022-08-22T21:26:19.522Z,20.34
2022-08-22T21:28:49.137Z,20.30
2022-08-22T21:31:22.637Z,20.37
2022-08-22T21:33:50.947Z,20.49
2022-08-22T21:36:20.503Z,20.43
2022-08-22T21:38:54.400Z,19.95
2022-08-22T21:41:39.320Z,20.47
2022-08-22T21:44:38.242Z,20.66
2022-08-22T21:47:31.392Z,20.69
2022-08-22T21:50:06.785Z,20.70
2022-08-22T21:52:36.135Z,20.45
2022-08-22T21:55:29.872Z,20.63
2022-08-22T21:58:05.504Z,20.71
2022-08-22T22:00:49.365Z,20.80
2022-08-22T22:03:19.248Z,20.45
2022-08-22T22:05:46.276Z,20.81
2022-08-22T22:08:13.303Z,20.74
2022-08-22T22:10:42.169Z,20.80
2022-08-22T22:13:09.973Z,20.41
2022-08-22T22:15:44.135Z,20.84
2022-08-22T22:18:13.079Z,20.81
2022-08-22T22:20:40.039Z,20.91
2022-08-22T22:23:06.777Z,20.96
2022-08-22T22:25:39.563Z,20.60
2022-08-22T22:28:15.946Z,20.82
2022-08-22T22:30:44.142Z,20.79
2022-08-22T22:33:11.324Z,20.82
2022-08-22T22:35:40.187Z,20.83
2022-08-22T22:38:07.867Z,20.52
2022-08-22T22:40:35.282Z,20.73
2022-08-22T22:43:02.017Z,20.71
2022-08-22T22:45:28.918Z,20.68
2022-08-22T22:47:55.642Z,20.81
2022-08-22T22:50:22.357Z,20.73
2022-08-22T22:52:49.062Z,20.85
2022-08-22T22:55:24.753Z,20.74
2022-08-22T22:57:59.323Z,20.69
2022-08-22T23:00:30.630Z,20.63
2022-08-22T23:03:02.146Z,20.58
2022-08-22T23:05:30.381Z,20.43
2022-08-22T23:07:57.757Z,20.31
2022-08-22T23:10:25.621Z,20.22
2022-08-22T23:12:52.268Z,20.16
2022-08-22T23:15:18.923Z,20.04
2022-08-22T23:17:45.751Z,19.68
2022-08-22T23:20:12.721Z,19.97
2022-08-22T23:22:41.608Z,19.96
2022-08-22T23:25:09.257Z,20.06
2022-08-22T23:27:36.672Z,19.87
2022-08-22T23:30:05.605Z,19.92
2022-08-22T23:32:32.994Z,20.14
2022-08-22T23:34:59.633Z,20.12
2022-08-22T23:37:26.331Z,20.17
2022-08-22T23:39:53.117Z,19.62
2022-08-22T23:42:19.831Z,20.17
2022-08-22T23:44:46.559Z,19.99
2022-08-22T23:47:14.253Z,20.13
2022-08-22T23:49:42.655Z,19.94
2022-08-22T23:52:12.220Z,20.12
2022-08-22T23:54:40.116Z,20.12
2022-08-22T23:57:11.461Z,20.10
2022-08-22T23:59:46.525Z,20.11
